Time;durP1;ratioP1;P1;durP2;ratioP2;P2;SDS_P1;SDS_P2;PMS_P1;PMS_P2;Temp;Humidity;BMP_temperature;BMP_pressure;BME280_temperature;BME280_humidity;BME280_pressure;Samples;Min_cycle;Max_cycle;Signal;HPM_P1;HPM_P2
2021/12/17 00:03:34;;;;;;;;;;;;;;;5.23;100.00;100391.19;3972415;89;20160;-77
2021/12/17 00:09:27;;;;;;;;;;;;;;;5.23;100.00;100399.19;3966911;89;20492;-77
2021/12/17 00:15:28;;;;;;;;;;;;;;;5.22;100.00;100391.38;3908237;90;20286;-77
2021/12/17 00:52:39;;;;;;;;;;;;;;;5.13;100.00;100381.16;3942874;89;20235;-78
2021/12/17 00:58:40;;;;;;;;;;;;;;;4.96;100.00;100387.79;4019150;87;20187;-78
2021/12/17 01:04:45;;;;;;;;;;;;;;;5.00;100.00;100374.98;4014871;87;20470;-77
2021/12/17 01:10:50;;;;;;;;;;;;;;;5.05;100.00;100387.31;4013862;88;20217;-78
2021/12/17 01:17:11;;;;;;;;;;;;;;;5.12;100.00;100380.83;3994263;87;20256;-79
2021/12/17 01:35:56;;;;;;;;;;;;;;;5.09;100.00;100366.50;3933153;89;20625;-78
2021/12/17 01:42:05;;;;;;;;;;;;;;;5.01;100.00;100376.13;3934229;89;20292;-77
2021/12/17 01:48:10;;;;;;;;;;;;;;;4.92;100.00;100380.27;3922294;89;20267;-79
2021/12/17 02:00:36;;;;;;;;;;;;;;;5.00;100.00;100386.97;3938457;90;20352;-77
2021/12/17 02:06:37;;;;;;;;;;;;;;;5.01;100.00;100377.46;3938758;89;20347;-77
2021/12/17 02:12:57;;;;;;;;;;;;;;;4.87;100.00;100368.25;3973689;89;20509;-77
2021/12/17 02:37:31;;;;;;;;;;;;;;;4.89;100.00;100342.78;3925099;90;20293;-77
2021/12/17 02:50:12;;;;;;;;;;;;;;;4.80;100.00;100342.41;3926409;89;20240;-77
2021/12/17 02:56:14;;;;;;;;;;;;;;;4.73;100.00;100343.55;3927741;89;20224;-79
2021/12/17 03:02:17;;;;;;;;;;;;;;;4.78;100.00;100341.74;3924146;89;20252;-76
2021/12/17 03:08:18;;;;;;;;;;;;;;;4.54;100.00;100339.33;3927064;89;20225;-76
2021/12/17 03:14:19;;;;;;;;;;;;;;;4.49;100.00;100345.61;3956725;89;20617;-76
2021/12/17 03:26:40;;;;;;;;;;;;;;;4.62;100.00;100345.17;3983981;88;20235;-78
2021/12/17 03:32:42;;;;;;;;;;;;;;;4.39;100.00;100352.39;3979107;87;20172;-77
2021/12/17 03:38:45;;;;;;;;;;;;;;;4.48;100.00;100342.13;3979318;89;20216;-76
2021/12/17 03:44:46;;;;;;;;;;;;;;;4.36;100.00;100343.38;3998285;88;20207;-77
2021/12/17 03:51:14;;;;;;;;;;;;;;;4.35;100.00;100356.34;3986362;88;20467;-77
2021/12/17 03:57:17;;;;;;;;;;;;;;;4.48;100.00;100352.78;4009021;88;20179;-77
2021/12/17 04:03:18;;;;;;;;;;;;;;;4.35;100.00;100369.66;4003308;88;20241;-78
2021/12/17 04:09:29;;;;;;;;;;;;;;;4.35;100.00;100357.20;4018635;88;20696;-77
2021/12/17 04:15:37;;;;;;;;;;;;;;;4.42;100.00;100349.41;4006657;88;20202;-77
2021/12/17 04:21:34;;;;;;;;;;;;;;;4.21;100.00;100358.61;3999976;88;20483;-77
2021/12/17 04:27:35;;;;;;;;;;;;;;;4.44;100.00;100358.91;4017893;88;20195;-77
2021/12/17 04:33:38;;;;;;;;;;;;;;;4.42;100.00;100353.41;4001714;87;20321;-76
2021/12/17 04:39:41;;;;;;;;;;;;;;;4.31;100.00;100338.52;3997196;88;20191;-77
2021/12/17 04:45:51;;;;;;;;;;;;;;;4.25;100.00;100343.16;4016490;88;20298;-78
2021/12/17 04:58:06;;;;;;;;;;;;;;;4.21;100.00;100342.63;3919906;89;20216;-78
2021/12/17 05:04:08;;;;;;;;;;;;;;;4.00;100.00;100338.99;3976350;88;20233;-77
2021/12/17 05:22:36;;;;;;;;;;;;;;;4.10;100.00;100312.29;3919578;90;20635;-76
2021/12/17 05:28:38;;;;;;;;;;;;;;;3.96;100.00;100321.67;3992733;88;20499;-76
2021/12/17 05:34:39;;;;;;;;;;;;;;;3.98;100.00;100321.02;3996962;88;20223;-76
2021/12/17 05:40:43;;;;;;;;;;;;;;;3.97;100.00;100318.87;3991637;88;20179;-77
2021/12/17 05:46:50;;;;;;;;;;;;;;;3.90;100.00;100301.37;3978858;87;20262;-76
2021/12/17 05:52:53;;;;;;;;;;;;;;;3.95;100.00;100312.84;3997816;87;20254;-77
2021/12/17 05:58:56;;;;;;;;;;;;;;;3.96;100.00;100321.20;3922535;90;20375;-77
2021/12/17 06:04:57;;;;;;;;;;;;;;;4.09;100.00;100313.28;3999617;87;20218;-76
2021/12/17 06:10:58;;;;;;;;;;;;;;;4.15;100.00;100329.94;3985361;88;20239;-76
2021/12/17 06:17:00;;;;;;;;;;;;;;;4.07;100.00;100328.58;3926978;89;20188;-77
2021/12/17 06:23:05;;;;;;;;;;;;;;;4.10;100.00;100344.23;3918331;89;20199;-76
2021/12/17 06:29:07;;;;;;;;;;;;;;;3.99;100.00;100353.30;3920822;90;20203;-77
2021/12/17 06:35:09;;;;;;;;;;;;;;;3.85;100.00;100360.85;3923607;90;20173;-78
2021/12/17 06:41:11;;;;;;;;;;;;;;;3.88;100.00;100363.19;3912587;90;20515;-77
2021/12/17 06:47:28;;;;;;;;;;;;;;;3.96;100.00;100369.09;3959446;89;20240;-74
2021/12/17 07:06:34;;;;;;;;;;;;;;;3.83;100.00;100364.17;3936623;89;20293;-75
2021/12/17 07:32:18;;;;;;;;;;;;;;;3.97;100.00;100369.44;3979496;87;20249;-74
2021/12/17 07:44:03;;;;;;;;;;;;;;;3.93;100.00;100360.58;3983942;88;20285;-75
2021/12/17 07:50:06;;;;;;;;;;;;;;;4.04;100.00;100347.84;3995332;87;20222;-74
2021/12/17 07:56:10;;;;;;;;;;;;;;;4.36;100.00;100345.55;3919474;89;20280;-74
2021/12/17 08:02:13;;;;;;;;;;;;;;;4.27;100.00;100342.50;3960852;88;20296;-76
2021/12/17 08:08:16;;;;;;;;;;;;;;;4.29;100.00;100332.52;3959864;89;20265;-71
2021/12/17 08:14:18;;;;;;;;;;;;;;;4.28;100.00;100341.02;3961749;89;20291;-71
2021/12/17 08:26:53;;;;;;;;;;;;;;;4.46;100.00;100342.27;3964930;88;20553;-72
2021/12/17 08:32:45;;;;;;;;;;;;;;;4.67;100.00;100363.68;3962439;88;20260;-75
2021/12/17 08:38:51;;;;;;;;;;;;;;;4.59;100.00;100375.14;3957064;88;20474;-73
2021/12/17 08:44:55;;;;;;;;;;;;;;;4.36;100.00;100364.19;3957749;88;20228;-73
2021/12/17 08:51:16;;;;;;;;;;;;;;;4.63;100.00;100362.83;3963991;88;20259;-73
2021/12/17 08:57:17;;;;;;;;;;;;;;;4.57;100.00;100367.78;3965108;89;20185;-76
2021/12/17 09:03:18;;;;;;;;;;;;;;;4.64;100.00;100373.33;3959759;88;20252;-75
2021/12/17 09:09:22;;;;;;;;;;;;;;;4.69;100.00;100387.52;3957471;88;20264;-72
2021/12/17 09:15:25;;;;;;;;;;;;;;;4.55;100.00;100392.41;3965371;88;22712;-75
2021/12/17 09:21:40;;;;;;;;;;;;;;;4.44;100.00;100394.02;3961985;88;20210;-77
2021/12/17 09:27:46;;;;;;;;;;;;;;;4.42;100.00;100393.34;3970053;88;20245;-81
2021/12/17 09:33:52;;;;;;;;;;;;;;;4.60;100.00;100387.95;3959557;89;20240;-78
2021/12/17 09:39:53;;;;;;;;;;;;;;;4.84;100.00;100378.39;3983358;87;20191;-81
2021/12/17 09:45:54;;;;;;;;;;;;;;;4.94;100.00;100364.44;3957582;88;20265;-78
2021/12/17 09:51:57;;;;;;;;;;;;;;;4.68;100.00;100361.84;3958830;88;20251;-76
2021/12/17 09:57:58;;;;;;;;;;;;;;;4.66;100.00;100360.68;3965316;88;20236;-77
2021/12/17 10:04:17;;;;;;;;;;;;;;;4.85;100.00;100344.11;3970884;89;20512;-76
2021/12/17 10:10:18;;;;;;;;;;;;;;;4.78;100.00;100345.22;3957904;88;20255;-76
2021/12/17 10:16:21;;;;;;;;;;;;;;;5.09;100.00;100332.66;3962068;89;20263;-79
2021/12/17 10:22:23;;;;;;;;;;;;;;;4.79;100.00;100343.41;3955010;88;20196;-79
2021/12/17 10:28:24;;;;;;;;;;;;;;;5.06;100.00;100336.17;3961731;88;20249;-80
2021/12/17 10:34:25;;;;;;;;;;;;;;;5.03;100.00;100321.33;3994679;87;20153;-78
2021/12/17 10:40:38;;;;;;;;;;;;;;;5.16;100.00;100312.87;3999150;87;20429;-77
2021/12/17 10:46:56;;;;;;;;;;;;;;;5.00;100.00;100317.16;3988554;87;20308;-78
2021/12/17 10:52:55;;;;;;;;;;;;;;;5.02;100.00;100327.66;3923929;89;20273;-80
2021/12/17 10:58:57;;;;;;;;;;;;;;;5.12;100.00;100327.02;3937263;89;20637;-79
2021/12/17 11:05:00;;;;;;;;;;;;;;;5.12;100.00;100327.02;3933295;89;20568;-73
2021/12/17 11:11:11;;;;;;;;;;;;;;;5.13;100.00;100334.02;3917089;89;20308;-71
2021/12/17 11:17:14;;;;;;;;;;;;;;;4.94;100.00;100315.13;3943360;89;20238;-76
2021/12/17 11:23:16;;;;;;;;;;;;;;;4.98;100.00;100319.64;3978495;87;20243;-73
2021/12/17 11:29:17;;;;;;;;;;;;;;;4.95;100.00;100315.48;3978939;88;20212;-76
2021/12/17 11:35:21;;;;;;;;;;;;;;;4.73;100.00;100306.25;4001439;88;20315;-76
2021/12/17 11:41:44;;;;;;;;;;;;;;;4.51;100.00;100312.50;4005490;87;20581;-72
2021/12/17 11:47:48;;;;;;;;;;;;;;;4.87;100.00;100314.13;3992918;89;20241;-73
2021/12/17 11:53:56;;;;;;;;;;;;;;;4.77;100.00;100304.11;4003506;89;20684;-72
2021/12/17 11:59:59;;;;;;;;;;;;;;;4.82;100.00;100307.95;4000934;87;20322;-74
2021/12/17 12:06:05;;;;;;;;;;;;;;;4.79;100.00;100300.77;3997530;89;20171;-74
2021/12/17 12:12:10;;;;;;;;;;;;;;;4.78;100.00;100294.59;4001956;87;20289;-74
2021/12/17 12:18:15;;;;;;;;;;;;;;;4.83;100.00;100291.45;4001839;88;20638;-78
2021/12/17 12:24:17;;;;;;;;;;;;;;;4.67;100.00;100305.07;3991542;87;20242;-76
2021/12/17 12:30:36;;;;;;;;;;;;;;;4.38;100.00;100312.12;3998482;87;20266;-78
2021/12/17 12:36:49;;;;;;;;;;;;;;;4.38;100.00;100312.12;4001332;87;20187;-80
2021/12/17 12:42:52;;;;;;;;;;;;;;;4.43;100.00;100308.46;4003931;87;20528;-81
2021/12/17 12:48:53;;;;;;;;;;;;;;;4.37;100.00;100315.74;4001170;88;20223;-81
2021/12/17 12:54:57;;;;;;;;;;;;;;;4.14;100.00;100329.60;4007390;87;20218;-80
2021/12/17 13:01:01;;;;;;;;;;;;;;;4.20;100.00;100314.34;3997844;88;20578;-77
2021/12/17 13:07:02;;;;;;;;;;;;;;;4.21;100.00;100312.02;4014337;87;20206;-76
2021/12/17 13:13:16;;;;;;;;;;;;;;;4.14;100.00;100302.98;4011323;87;20202;-77
2021/12/17 13:25:31;;;;;;;;;;;;;;;4.14;100.00;100293.19;3866404;88;20279;-80
2021/12/17 13:31:35;;;;;;;;;;;;;;;4.14;100.00;100292.34;3943169;89;20273;-82
2021/12/17 13:37:37;;;;;;;;;;;;;;;4.00;100.00;100297.74;3874700;90;20286;-82
2021/12/17 13:43:41;;;;;;;;;;;;;;;4.03;100.00;100300.92;3963531;90;20227;-84
2021/12/17 13:49:55;;;;;;;;;;;;;;;3.97;100.00;100308.70;3949541;90;20258;-77
2021/12/17 13:55:57;;;;;;;;;;;;;;;4.03;100.00;100311.58;3937749;90;20190;-76
2021/12/17 14:01:58;;;;;;;;;;;;;;;4.08;100.00;100292.98;3962737;89;20325;-74
2021/12/17 14:08:00;;;;;;;;;;;;;;;4.01;100.00;100298.92;3957495;90;20256;-76
2021/12/17 14:14:01;;;;;;;;;;;;;;;4.10;100.00;100305.13;3915850;89;20159;-77
2021/12/17 14:20:07;;;;;;;;;;;;;;;3.96;100.00;100305.71;3931416;89;20533;-77
2021/12/17 14:26:09;;;;;;;;;;;;;;;3.90;100.00;100288.55;4038239;87;20179;-78
2021/12/17 14:32:18;;;;;;;;;;;;;;;3.85;100.00;100308.97;3985618;88;20207;-78
2021/12/17 14:38:25;;;;;;;;;;;;;;;3.88;100.00;100305.17;4031293;87;20254;-78
2021/12/17 15:09:24;;;;;;;;;;;;;;;3.91;100.00;100310.17;4032637;87;20206;-80
2021/12/17 15:15:28;;;;;;;;;;;;;;;3.86;100.00;100294.67;4067546;87;20206;-81
2021/12/17 15:21:29;;;;;;;;;;;;;;;3.74;100.00;100299.40;4056233;87;20498;-81
2021/12/17 15:27:33;;;;;;;;;;;;;;;3.86;100.00;100291.20;4029094;87;20210;-81
2021/12/17 15:33:36;;;;;;;;;;;;;;;3.86;100.00;100308.48;4021334;87;20172;-80
2021/12/17 15:39:38;;;;;;;;;;;;;;;3.94;100.00;100309.84;4076617;87;20506;-81
2021/12/17 15:45:42;;;;;;;;;;;;;;;3.87;100.00;100322.95;4033290;87;20247;-79
2021/12/17 15:51:43;;;;;;;;;;;;;;;3.87;100.00;100319.47;4016989;88;20178;-81
2021/12/17 15:57:48;;;;;;;;;;;;;;;3.95;100.00;100331.47;4016449;88;20194;-80
2021/12/17 16:03:49;;;;;;;;;;;;;;;3.85;100.00;100335.58;4049954;87;20239;-79
2021/12/17 16:22:13;;;;;;;;;;;;;;;3.95;100.00;100325.33;4026980;87;20199;-80
2021/12/17 16:28:14;;;;;;;;;;;;;;;3.92;100.00;100314.50;3990863;87;20189;-80
2021/12/17 16:34:16;;;;;;;;;;;;;;;3.96;100.00;100323.86;4048603;87;20227;-79
2021/12/17 16:40:17;;;;;;;;;;;;;;;4.04;100.00;100323.06;4034226;87;20183;-80
2021/12/17 16:52:26;;;;;;;;;;;;;;;3.84;100.00;100327.26;3951262;89;20223;-81
2021/12/17 16:58:27;;;;;;;;;;;;;;;3.86;100.00;100322.61;4009789;88;20231;-77
2021/12/17 17:04:28;;;;;;;;;;;;;;;3.82;100.00;100316.42;3917337;90;20295;-76
2021/12/17 17:10:33;;;;;;;;;;;;;;;3.89;100.00;100330.27;3914969;89;21061;-79
2021/12/17 17:16:32;;;;;;;;;;;;;;;3.70;100.00;100329.97;3996882;87;20559;-77
2021/12/17 17:22:33;;;;;;;;;;;;;;;3.86;100.00;100325.27;4021312;88;20235;-83
2021/12/17 17:28:35;;;;;;;;;;;;;;;3.82;100.00;100351.86;4023292;88;20182;-78
2021/12/17 17:34:36;;;;;;;;;;;;;;;3.78;100.00;100353.14;4025160;87;20237;-81
2021/12/17 17:40:40;;;;;;;;;;;;;;;3.81;100.00;100347.53;4044819;87;20188;-79
2021/12/17 17:46:41;;;;;;;;;;;;;;;3.84;100.00;100339.71;4027126;87;20289;-76
2021/12/17 17:52:45;;;;;;;;;;;;;;;3.82;100.00;100347.02;4037971;87;20278;-82
2021/12/17 17:58:46;;;;;;;;;;;;;;;3.84;100.00;100358.34;4027921;88;20224;-77
2021/12/17 18:04:48;;;;;;;;;;;;;;;3.85;100.00;100354.20;4019747;87;20269;-79
2021/12/17 18:10:49;;;;;;;;;;;;;;;3.76;100.00;100359.11;4045546;88;20240;-81
2021/12/17 18:16:50;;;;;;;;;;;;;;;3.89;100.00;100344.91;4043088;87;20272;-74
2021/12/17 18:22:52;;;;;;;;;;;;;;;3.80;100.00;100347.67;4031933;87;20281;-77
2021/12/17 18:28:55;;;;;;;;;;;;;;;3.80;100.00;100372.47;4003635;88;20199;-75
2021/12/17 18:34:57;;;;;;;;;;;;;;;3.68;100.00;100356.38;4006485;87;20325;-73
2021/12/17 18:41:05;;;;;;;;;;;;;;;3.82;100.00;100344.36;3999748;88;20538;-79
2021/12/17 18:47:02;;;;;;;;;;;;;;;3.69;100.00;100364.70;3955932;89;20280;-82
2021/12/17 18:53:04;;;;;;;;;;;;;;;3.66;100.00;100351.23;3951583;89;20277;-74
2021/12/17 18:59:07;;;;;;;;;;;;;;;3.66;100.00;100353.89;3942509;89;20185;-75
2021/12/17 19:05:09;;;;;;;;;;;;;;;3.78;100.00;100354.98;3981782;87;20217;-77
2021/12/17 19:11:10;;;;;;;;;;;;;;;3.77;100.00;100363.44;3927061;89;20572;-78
2021/12/17 19:17:12;;;;;;;;;;;;;;;3.75;100.00;100350.80;3935708;89;20209;-77
2021/12/17 19:23:13;;;;;;;;;;;;;;;3.87;100.00;100369.51;3949074;88;20248;-82
2021/12/17 19:29:15;;;;;;;;;;;;;;;3.69;100.00;100363.37;3952133;89;20241;-78
2021/12/17 19:35:18;;;;;;;;;;;;;;;3.62;100.00;100377.30;3942848;89;20236;-79
2021/12/17 19:41:19;;;;;;;;;;;;;;;3.60;100.00;100395.23;3939312;89;20307;-78
2021/12/17 19:47:32;;;;;;;;;;;;;;;3.56;100.00;100399.17;3951996;89;20228;-76
2021/12/17 19:53:23;;;;;;;;;;;;;;;3.61;100.00;100378.29;3987344;88;20550;-77
2021/12/17 20:03:42;;;;;;;12.28;4.10;;;;;;;3.36;100.00;100393.17;4591829;77;63297;-83
2021/12/17 20:09:41;;;;;;;10.70;3.87;;;;;;;3.28;100.00;100399.72;4533681;78;28510;-82
2021/12/17 20:15:42;;;;;;;7.20;3.40;;;;;;;3.20;100.00;100399.97;4498055;78;28514;-77
2021/12/17 20:21:44;;;;;;;9.10;3.85;;;;;;;3.25;100.00;100393.38;4529395;78;28520;-77
2021/12/17 20:27:48;;;;;;;10.72;3.42;;;;;;;3.43;100.00;100400.05;4491248;78;28555;-80
2021/12/17 20:33:51;;;;;;;11.22;3.52;;;;;;;3.34;100.00;100405.27;4480983;78;28483;-80
2021/12/17 20:39:53;;;;;;;15.15;4.65;;;;;;;3.40;100.00;100407.00;4513183;78;28537;-80
2021/12/17 20:45:55;;;;;;;13.03;3.60;;;;;;;3.43;100.00;100402.70;4510175;78;28474;-79
2021/12/17 20:51:56;;;;;;;7.15;3.45;;;;;;;3.32;100.00;100405.07;4517322;78;28467;-78
2021/12/17 20:57:58;;;;;;;8.60;3.40;;;;;;;3.40;100.00;100420.30;4321806;82;28496;-75
2021/12/17 21:04:04;;;;;;;10.05;3.42;;;;;;;3.23;100.00;100416.11;4362595;81;28515;-81
2021/12/17 21:10:07;;;;;;;;;;;;;;;3.29;100.00;100420.00;4357539;81;28437;-78
2021/12/17 21:16:08;;;;;;;12.20;3.70;;;;;;;3.08;100.00;100440.20;4347978;81;20167;-77
2021/12/17 21:22:10;;;;;;;9.55;3.50;;;;;;;2.92;100.00;100459.78;4343766;81;28514;-78
2021/12/17 21:28:13;;;;;;;10.38;3.85;;;;;;;2.90;100.00;100464.88;4359666;81;28543;-79
2021/12/17 21:34:16;;;;;;;9.55;3.62;;;;;;;3.03;100.00;100452.09;4364328;81;28499;-79
2021/12/17 21:40:22;;;;;;;8.65;3.02;;;;;;;2.99;100.00;100449.88;4376032;81;28496;-81
2021/12/17 21:46:24;;;;;;;;;;;;;;;3.03;100.00;100440.64;4382572;81;28554;-79
2021/12/17 21:52:26;;;;;;;10.20;3.50;;;;;;;3.11;100.00;100447.88;4372294;81;20269;-77
2021/12/17 21:58:27;;;;;;;9.43;3.72;;;;;;;3.14;100.00;100463.52;4358868;81;28489;-76
2021/12/17 22:04:30;;;;;;;8.83;3.72;;;;;;;3.01;100.00;100467.83;4379217;81;28480;-78
2021/12/17 22:10:33;;;;;;;12.37;3.75;;;;;;;3.19;100.00;100478.55;4380151;81;28485;-77
2021/12/17 22:16:37;;;;;;;9.08;3.47;;;;;;;3.13;100.00;100459.19;4377092;81;28503;-77
2021/12/17 22:22:39;;;;;;;10.98;3.42;;;;;;;3.17;100.00;100467.20;4354152;81;28522;-76
2021/12/17 22:28:40;;;;;;;10.23;3.25;;;;;;;3.26;100.00;100476.95;4372325;81;28553;-76
2021/12/17 22:34:44;;;;;;;9.60;3.55;;;;;;;3.02;100.00;100477.47;4384253;81;28511;-77
2021/12/17 22:41:02;;;;;;;8.60;3.52;;;;;;;3.11;100.00;100488.55;4390425;81;28516;-77
2021/12/17 22:46:54;;;;;;;11.85;3.42;;;;;;;3.17;100.00;100487.13;4351333;81;28526;-76
2021/12/17 22:52:55;;;;;;;8.43;2.80;;;;;;;3.11;100.00;100489.88;4368723;81;28519;-79
2021/12/17 22:58:57;;;;;;;7.28;2.70;;;;;;;3.17;100.00;100505.26;4388396;81;28594;-78
2021/12/17 23:05:01;;;;;;;8.48;3.27;;;;;;;3.15;100.00;100515.69;4374398;81;28488;-77
2021/12/17 23:11:02;;;;;;;10.03;2.85;;;;;;;3.17;100.00;100515.03;4354257;81;28479;-77
2021/12/17 23:17:05;;;;;;;8.98;2.67;;;;;;;3.06;100.00;100526.20;4374689;81;28515;-77
2021/12/17 23:23:06;;;;;;;9.00;2.95;;;;;;;3.06;100.00;100523.54;4340949;81;28514;-76
2021/12/17 23:29:09;;;;;;;8.68;2.90;;;;;;;3.12;100.00;100520.79;4374526;81;28476;-76
2021/12/17 23:35:17;;;;;;;7.67;2.62;;;;;;;3.13;100.00;100531.80;4364208;80;28511;-77
2021/12/17 23:41:17;;;;;;;7.60;2.98;;;;;;;3.20;100.00;100537.36;4372972;81;28492;-76
2021/12/17 23:47:18;;;;;;;9.53;2.92;;;;;;;3.02;100.00;100536.78;4374458;81;28476;-78
2021/12/17 23:53:19;;;;;;;8.25;2.92;;;;;;;3.15;100.00;100548.91;4364101;81;28519;-77
2021/12/17 23:59:22;;;;;;;8.55;2.90;;;;;;;2.85;100.00;100546.34;4365156;81;28531;-76
